Time;durP1;ratioP1;P1;durP2;ratioP2;P2;SDS_P1;SDS_P2;PMS_P1;PMS_P2;Temp;Humidity;BMP_temperature;BMP_pressure;BME280_temperature;BME280_humidity;BME280_pressure;Samples;Min_cycle;Max_cycle;Signal;HPM_P1;HPM_P2
2022/04/21 00:02:22;;;;;;;4.57;3.30;;;;;;;;;;4984520;28;20194;-51
2022/04/21 00:04:48;;;;;;;6.60;3.60;;;;;;;;;;4942932;28;20825;-53
2022/04/21 00:07:14;;;;;;;4.70;4.17;;;;;;;;;;4990589;28;20189;-52
2022/04/21 00:09:40;;;;;;;8.87;3.93;;;;;;;;;;4958802;28;20196;-52
2022/04/21 00:12:06;;;;;;;4.43;4.03;;;;;;;;;;4991669;28;20448;-51
2022/04/21 00:14:32;;;;;;;5.00;3.83;;;;;;;;;;4984563;28;20247;-53
2022/04/21 00:16:58;;;;;;;4.20;3.50;;;;;;;;;;4991883;28;20516;-53
2022/04/21 00:19:24;;;;;;;4.13;3.27;;;;;;;;;;4965276;28;20449;-52
2022/04/21 00:24:35;;;;;;;7.70;3.20;;;;;;;;;;4985139;28;20522;-53
2022/04/21 00:27:01;;;;;;;5.47;3.80;;;;;;;;;;4989491;28;20437;-51
2022/04/21 00:29:27;;;;;;;4.30;3.80;;;;;;;;;;4964444;28;21644;-53
2022/04/21 00:31:53;;;;;;;3.97;3.33;;;;;;;;;;4992799;28;20509;-54
2022/04/21 00:34:19;;;;;;;4.83;3.57;;;;;;;;;;4983761;28;20539;-52
2022/04/21 00:36:45;;;;;;;4.17;3.77;;;;;;;;;;4987057;28;20528;-53
2022/04/21 00:39:12;;;;;;;4.97;4.07;;;;;;;;;;4954773;28;20484;-53
2022/04/21 00:41:38;;;;;;;6.27;3.37;;;;;;;;;;4979580;28;20850;-51
2022/04/21 00:44:04;;;;;;;4.30;3.90;;;;;;;;;;4969056;28;21146;-52
2022/04/21 00:46:30;;;;;;;5.10;3.50;;;;;;;;;;4981633;28;20449;-51
2022/04/21 00:48:56;;;;;;;3.80;3.40;;;;;;;;;;4989698;28;20926;-51
2022/04/21 00:51:23;;;;;;;4.90;4.23;;;;;;;;;;4999990;28;20456;-52
2022/04/21 00:53:49;;;;;;;3.33;2.90;;;;;;;;;;4981658;28;20550;-52
2022/04/21 00:56:15;;;;;;;4.90;3.67;;;;;;;;;;4971001;28;20792;-51
2022/04/21 00:58:41;;;;;;;5.07;4.67;;;;;;;;;;4982222;28;20484;-53
2022/04/21 01:02:46;;;;;;;5.13;4.33;;;;;;;;;;4965100;28;20441;-53
2022/04/21 01:03:54;;;;;;;4.67;4.27;;;;;;;;;;4979825;28;20465;-52
2022/04/21 01:06:19;;;;;;;5.57;3.87;;;;;;;;;;4966450;28;20672;-53
2022/04/21 01:08:47;;;;;;;5.37;4.53;;;;;;;;;;4979267;28;20453;-54
2022/04/21 01:11:13;;;;;;;4.37;3.63;;;;;;;;;;4955741;28;20969;-52
2022/04/21 01:13:40;;;;;;;5.37;4.20;;;;;;;;;;4980448;28;20556;-51
2022/04/21 01:16:06;;;;;;;6.43;4.20;;;;;;;;;;4964395;28;20479;-51
2022/04/21 01:18:32;;;;;;;4.43;3.97;;;;;;;;;;4986456;28;20477;-51
2022/04/21 01:20:58;;;;;;;4.30;3.90;;;;;;;;;;4983327;28;21009;-52
2022/04/21 01:23:24;;;;;;;4.33;3.93;;;;;;;;;;4974400;28;20437;-52
2022/04/21 01:25:50;;;;;;;5.80;4.43;;;;;;;;;;4962882;28;21038;-52
2022/04/21 01:28:16;;;;;;;5.90;4.63;;;;;;;;;;5001661;28;20441;-52
2022/04/21 01:30:41;;;;;;;4.63;4.20;;;;;;;;;;4963267;28;20186;-52
2022/04/21 01:33:08;;;;;;;6.50;4.37;;;;;;;;;;4982173;28;20684;-52
2022/04/21 01:35:34;;;;;;;4.30;3.53;;;;;;;;;;4983064;28;20217;-52
2022/04/21 01:43:29;;;;;;;6.23;5.00;;;;;;;;;;4987352;28;20469;-51
2022/04/21 01:45:55;;;;;;;5.07;4.63;;;;;;;;;;4945497;28;20540;-52
2022/04/21 01:48:21;;;;;;;4.83;4.43;;;;;;;;;;4986956;28;20325;-52
2022/04/21 01:50:47;;;;;;;8.53;4.00;;;;;;;;;;4966785;28;20449;-52
2022/04/21 01:53:13;;;;;;;4.50;4.00;;;;;;;;;;4987451;28;20546;-52
2022/04/21 01:55:39;;;;;;;5.27;4.40;;;;;;;;;;4963177;28;20448;-51
2022/04/21 01:58:05;;;;;;;8.17;5.70;;;;;;;;;;4988958;28;20225;-52
2022/04/21 02:00:31;;;;;;;6.30;5.13;;;;;;;;;;4962425;28;20465;-52
2022/04/21 02:02:57;;;;;;;6.23;4.03;;;;;;;;;;4987145;28;20437;-52
2022/04/21 02:05:23;;;;;;;6.30;4.93;;;;;;;;;;4980981;28;20441;-52
2022/04/21 02:07:49;;;;;;;6.43;4.27;;;;;;;;;;4982040;28;20893;-52
2022/04/21 02:10:15;;;;;;;5.17;4.30;;;;;;;;;;4971470;28;20833;-52
2022/04/21 02:12:42;;;;;;;6.13;4.40;;;;;;;;;;4991770;28;20456;-52
2022/04/21 02:15:08;;;;;;;7.33;4.50;;;;;;;;;;4981594;28;20544;-52
2022/04/21 02:17:35;;;;;;;4.90;4.40;;;;;;;;;;4990481;28;20531;-53
2022/04/21 02:20:01;;;;;;;6.13;4.10;;;;;;;;;;4943282;28;20457;-52
2022/04/21 02:22:28;;;;;;;5.23;4.63;;;;;;;;;;4987092;28;20540;-52
2022/04/21 02:24:54;;;;;;;6.23;4.70;;;;;;;;;;4962704;28;20428;-53
2022/04/21 02:27:19;;;;;;;6.40;5.40;;;;;;;;;;4989032;28;20541;-53
2022/04/21 02:29:46;;;;;;;11.57;6.57;;;;;;;;;;4964049;28;20450;-52
2022/04/21 02:32:12;;;;;;;5.03;4.53;;;;;;;;;;4991737;28;20208;-52
2022/04/21 02:34:38;;;;;;;7.40;4.93;;;;;;;;;;4986362;28;20431;-52
2022/04/21 02:37:04;;;;;;;9.57;5.60;;;;;;;;;;4988785;28;20449;-53
2022/04/21 02:39:30;;;;;;;6.90;5.10;;;;;;;;;;4963277;28;20452;-53
2022/04/21 02:41:56;;;;;;;5.33;4.33;;;;;;;;;;4986869;28;20429;-53
2022/04/21 02:44:22;;;;;;;6.30;5.60;;;;;;;;;;4956349;28;20433;-55
2022/04/21 02:46:48;;;;;;;5.03;4.57;;;;;;;;;;4987578;28;20761;-53
2022/04/21 02:49:14;;;;;;;6.10;5.37;;;;;;;;;;4954243;28;21391;-53
2022/04/21 02:51:40;;;;;;;6.77;5.40;;;;;;;;;;4979592;28;20441;-52
2022/04/21 02:59:36;;;;;;;8.87;6.13;;;;;;;;;;4963650;28;21546;-52
2022/04/21 03:02:02;;;;;;;7.63;6.10;;;;;;;;;;4982461;28;20845;-52
2022/04/21 03:04:28;;;;;;;7.20;5.90;;;;;;;;;;4966028;28;20438;-52
2022/04/21 03:06:54;;;;;;;5.47;4.93;;;;;;;;;;4983341;28;21574;-53
2022/04/21 03:09:20;;;;;;;8.67;6.60;;;;;;;;;;4960577;28;23117;-51
2022/04/21 03:11:48;;;;;;;6.00;5.23;;;;;;;;;;4981625;28;20936;-51
2022/04/21 03:14:14;;;;;;;7.23;5.80;;;;;;;;;;4964989;28;20469;-54
2022/04/21 03:16:41;;;;;;;7.07;6.27;;;;;;;;;;4978965;28;20433;-52
2022/04/21 03:19:07;;;;;;;7.73;6.90;;;;;;;;;;4976640;28;21344;-51
2022/04/21 03:24:20;;;;;;;7.33;6.63;;;;;;;;;;4978815;28;20434;-53
2022/04/21 03:26:50;;;;;;;7.33;6.60;;;;;;;;;;4988734;28;20444;-52
2022/04/21 03:29:16;;;;;;;11.77;7.00;;;;;;;;;;4942041;28;21122;-52
2022/04/21 03:31:43;;;;;;;10.20;7.50;;;;;;;;;;4987628;28;20484;-50
2022/04/21 03:34:13;;;;;;;7.03;6.27;;;;;;;;;;4983724;28;20421;-51
2022/04/21 03:36:39;;;;;;;8.00;7.07;;;;;;;;;;4982924;28;20441;-51
2022/04/21 03:39:05;;;;;;;7.67;6.93;;;;;;;;;;4964470;28;23897;-52
2022/04/21 03:41:31;;;;;;;9.87;7.73;;;;;;;;;;4978676;28;20441;-53
2022/04/21 03:43:58;;;;;;;10.90;6.10;;;;;;;;;;4972307;28;23101;-53
2022/04/21 03:46:24;;;;;;;9.57;6.30;;;;;;;;;;4976672;28;20447;-52
2022/04/21 03:48:50;;;;;;;8.60;6.60;;;;;;;;;;4976670;28;20441;-52
2022/04/21 03:51:16;;;;;;;7.57;6.83;;;;;;;;;;4980137;28;20808;-56
2022/04/21 03:53:42;;;;;;;7.37;6.30;;;;;;;;;;4992542;28;20441;-52
2022/04/21 03:56:08;;;;;;;10.10;7.50;;;;;;;;;;4986655;28;20453;-52
2022/04/21 03:58:34;;;;;;;10.07;7.20;;;;;;;;;;4988981;28;20535;-52
2022/04/21 04:01:00;;;;;;;8.50;7.50;;;;;;;;;;4980782;28;20543;-52
2022/04/21 04:03:26;;;;;;;10.27;7.80;;;;;;;;;;4985262;28;21157;-52
2022/04/21 04:05:52;;;;;;;8.67;7.17;;;;;;;;;;4949073;28;20543;-52
2022/04/21 04:11:02;;;;;;;8.40;7.10;;;;;;;;;;4975596;28;20451;-52
2022/04/21 04:13:29;;;;;;;8.60;6.70;;;;;;;;;;4983545;28;20452;-52
2022/04/21 04:15:56;;;;;;;9.60;8.00;;;;;;;;;;4972737;28;20457;-50
2022/04/21 04:18:22;;;;;;;9.20;8.30;;;;;;;;;;4990609;28;20488;-52
2022/04/21 04:20:48;;;;;;;9.53;8.13;;;;;;;;;;4963345;28;20759;-51
2022/04/21 04:23:20;;;;;;;9.33;7.40;;;;;;;;;;4990243;28;20547;-56
2022/04/21 04:25:46;;;;;;;11.77;8.60;;;;;;;;;;4987042;28;20449;-51
2022/04/21 04:28:12;;;;;;;8.27;7.13;;;;;;;;;;4982689;28;20441;-54
2022/04/21 04:30:38;;;;;;;8.50;7.23;;;;;;;;;;4962620;28;20515;-51
2022/04/21 04:33:05;;;;;;;8.23;7.03;;;;;;;;;;4994077;28;20436;-53
2022/04/21 04:35:31;;;;;;;11.97;8.37;;;;;;;;;;4984303;28;20448;-54
2022/04/21 04:37:57;;;;;;;11.70;7.87;;;;;;;;;;4994576;28;20476;-52
2022/04/21 04:40:24;;;;;;;10.90;7.80;;;;;;;;;;4949170;28;20477;-51
2022/04/21 04:42:50;;;;;;;10.27;8.23;;;;;;;;;;4990539;28;20457;-52
2022/04/21 04:48:00;;;;;;;11.10;7.30;;;;;;;;;;4982518;28;20496;-52
2022/04/21 04:50:26;;;;;;;10.83;8.50;;;;;;;;;;4962736;28;20545;-53
2022/04/21 04:52:58;;;;;;;10.60;7.90;;;;;;;;;;4978486;28;20883;-51
2022/04/21 04:55:25;;;;;;;8.80;8.00;;;;;;;;;;4971882;28;20473;-51
2022/04/21 04:57:51;;;;;;;11.70;8.50;;;;;;;;;;4992249;28;20484;-53
2022/04/21 05:00:18;;;;;;;10.10;8.00;;;;;;;;;;4986141;28;20424;-52
2022/04/21 05:02:44;;;;;;;11.47;8.60;;;;;;;;;;4983654;28;20449;-52
2022/04/21 05:05:11;;;;;;;9.47;8.10;;;;;;;;;;4972303;28;21068;-53
2022/04/21 05:07:39;;;;;;;16.40;8.50;;;;;;;;;;4981535;28;20832;-52
2022/04/21 05:10:05;;;;;;;8.40;7.50;;;;;;;;;;4944000;28;20539;-51
2022/04/21 05:12:31;;;;;;;10.90;9.23;;;;;;;;;;4978484;28;20483;-51
2022/04/21 05:14:58;;;;;;;10.33;9.23;;;;;;;;;;4985285;28;20551;-52
2022/04/21 05:17:24;;;;;;;9.47;8.03;;;;;;;;;;4988218;28;20464;-51
2022/04/21 05:19:52;;;;;;;9.60;8.60;;;;;;;;;;4960916;28;20457;-52
2022/04/21 05:22:18;;;;;;;9.50;8.50;;;;;;;;;;4984238;28;20432;-51
2022/04/21 05:24:48;;;;;;;10.03;8.00;;;;;;;;;;4954109;28;20488;-52
2022/04/21 05:27:14;;;;;;;10.23;8.80;;;;;;;;;;4968173;28;20445;-51
2022/04/21 05:32:28;;;;;;;13.63;9.57;;;;;;;;;;4951234;28;21005;-53
2022/04/21 05:34:54;;;;;;;9.03;8.13;;;;;;;;;;4984270;28;20459;-53
2022/04/21 05:37:20;;;;;;;11.20;8.37;;;;;;;;;;4983930;28;20678;-52
2022/04/21 05:39:46;;;;;;;11.60;9.43;;;;;;;;;;4982571;28;20441;-53
2022/04/21 05:42:14;;;;;;;14.67;9.03;;;;;;;;;;4949253;28;20448;-52
2022/04/21 05:44:40;;;;;;;10.83;8.67;;;;;;;;;;4986161;28;20592;-51
2022/04/21 05:47:06;;;;;;;13.87;8.80;;;;;;;;;;4984170;28;20444;-52
2022/04/21 05:49:32;;;;;;;11.00;9.90;;;;;;;;;;4981447;28;20994;-52
2022/04/21 05:51:58;;;;;;;10.80;9.03;;;;;;;;;;4957987;28;20445;-51
2022/04/21 05:54:25;;;;;;;11.50;9.23;;;;;;;;;;4978645;28;20467;-51
2022/04/21 05:56:50;;;;;;;10.87;9.80;;;;;;;;;;4975141;28;20429;-50
2022/04/21 05:59:17;;;;;;;21.67;9.60;;;;;;;;;;4973888;28;21414;-52
2022/04/21 06:01:43;;;;;;;17.03;10.73;;;;;;;;;;4988975;28;20644;-52
2022/04/21 06:04:09;;;;;;;11.40;10.20;;;;;;;;;;4985051;28;20448;-52
2022/04/21 06:06:35;;;;;;;12.70;11.10;;;;;;;;;;4988462;28;20946;-51
2022/04/21 06:09:02;;;;;;;12.23;11.03;;;;;;;;;;4968212;28;20456;-51
2022/04/21 06:11:28;;;;;;;12.07;10.27;;;;;;;;;;4980862;28;20305;-51
2022/04/21 06:13:54;;;;;;;11.60;9.30;;;;;;;;;;4970811;28;20438;-51
2022/04/21 06:16:20;;;;;;;13.27;10.10;;;;;;;;;;4984020;28;20445;-52
2022/04/21 06:18:46;;;;;;;11.03;9.33;;;;;;;;;;4939087;28;20495;-52
2022/04/21 06:21:12;;;;;;;12.43;10.00;;;;;;;;;;4977486;28;20934;-52
2022/04/21 06:23:38;;;;;;;13.60;10.80;;;;;;;;;;4959559;28;20520;-52
2022/04/21 06:26:04;;;;;;;14.40;11.57;;;;;;;;;;4969654;28;20840;-52
2022/04/21 06:28:30;;;;;;;14.27;10.30;;;;;;;;;;4977625;28;21024;-52
2022/04/21 06:30:57;;;;;;;12.37;10.43;;;;;;;;;;4985928;28;20452;-52
2022/04/21 06:33:22;;;;;;;11.30;9.77;;;;;;;;;;4971280;28;20452;-52
2022/04/21 06:35:48;;;;;;;12.57;11.20;;;;;;;;;;4984794;28;20445;-53
2022/04/21 06:38:14;;;;;;;12.10;10.50;;;;;;;;;;4986097;28;20210;-53
2022/04/21 06:40:40;;;;;;;13.17;10.77;;;;;;;;;;4950001;28;20445;-52
2022/04/21 06:48:36;;;;;;;11.80;10.60;;;;;;;;;;4975240;28;20540;-54
2022/04/21 06:51:02;;;;;;;12.03;10.50;;;;;;;;;;4943035;28;20473;-51
2022/04/21 06:53:30;;;;;;;14.10;10.73;;;;;;;;;;4987124;28;20510;-52
2022/04/21 06:55:56;;;;;;;12.67;10.27;;;;;;;;;;4958348;28;20461;-53
2022/04/21 06:58:22;;;;;;;13.70;10.47;;;;;;;;;;4983953;28;20936;-53
2022/04/21 07:00:48;;;;;;;13.73;10.77;;;;;;;;;;4957415;28;20561;-53
2022/04/21 07:03:14;;;;;;;11.20;9.70;;;;;;;;;;4981288;28;20187;-53
2022/04/21 07:05:40;;;;;;;12.33;10.80;;;;;;;;;;4961221;28;20466;-51
2022/04/21 07:08:07;;;;;;;12.00;10.40;;;;;;;;;;4987795;28;20548;-52
2022/04/21 07:10:34;;;;;;;11.23;9.33;;;;;;;;;;4957377;28;20858;-52
2022/04/21 07:13:00;;;;;;;13.53;10.73;;;;;;;;;;4983968;28;20979;-53
2022/04/21 07:15:26;;;;;;;16.60;11.37;;;;;;;;;;4979211;28;20436;-52
2022/04/21 07:17:52;;;;;;;12.20;10.83;;;;;;;;;;4982466;28;20475;-52
2022/04/21 07:20:18;;;;;;;13.63;10.40;;;;;;;;;;4939352;28;20564;-53
2022/04/21 07:22:44;;;;;;;12.90;8.90;;;;;;;;;;4984966;28;20433;-51
2022/04/21 07:25:10;;;;;;;11.00;9.90;;;;;;;;;;4978897;28;20186;-51
2022/04/21 07:27:37;;;;;;;13.20;9.73;;;;;;;;;;4984490;28;20429;-51
2022/04/21 07:30:03;;;;;;;14.83;10.27;;;;;;;;;;4955151;28;20618;-51
2022/04/21 07:32:29;;;;;;;12.97;10.00;;;;;;;;;;4978943;28;20449;-51
2022/04/21 07:34:55;;;;;;;11.83;9.37;;;;;;;;;;4954717;28;20448;-52
2022/04/21 07:37:21;;;;;;;12.70;10.40;;;;;;;;;;4983658;28;21004;-53
2022/04/21 07:39:47;;;;;;;11.63;9.70;;;;;;;;;;4956127;28;20449;-51
2022/04/21 07:42:13;;;;;;;11.30;9.77;;;;;;;;;;4979252;28;20440;-51
2022/04/21 07:44:39;;;;;;;12.50;9.23;;;;;;;;;;4957834;28;21039;-51
2022/04/21 07:47:05;;;;;;;18.03;10.27;;;;;;;;;;4984073;28;20870;-51
2022/04/21 07:49:47;;;;;;;13.10;9.70;;;;;;;;;;4958559;28;20448;-51
2022/04/21 07:55:10;;;;;;;12.63;9.50;;;;;;;;;;4944408;28;20544;-52
2022/04/21 07:57:36;;;;;;;12.90;8.77;;;;;;;;;;4982230;28;20899;-53
2022/04/21 08:00:03;;;;;;;9.90;8.90;;;;;;;;;;4957709;28;20968;-53
2022/04/21 08:02:29;;;;;;;10.57;8.93;;;;;;;;;;4979516;28;20766;-52
2022/04/21 08:04:55;;;;;;;15.17;9.30;;;;;;;;;;4954696;28;20491;-53
2022/04/21 08:07:21;;;;;;;10.23;9.20;;;;;;;;;;4985413;28;20508;-52
2022/04/21 08:09:47;;;;;;;11.47;8.97;;;;;;;;;;4978705;28;20441;-53
2022/04/21 08:12:13;;;;;;;11.13;8.83;;;;;;;;;;4983034;28;20794;-53
2022/04/21 08:14:39;;;;;;;9.87;8.93;;;;;;;;;;4953906;28;20448;-52
2022/04/21 08:17:06;;;;;;;9.80;8.63;;;;;;;;;;4984523;28;20847;-53
2022/04/21 08:19:32;;;;;;;9.23;8.30;;;;;;;;;;4959267;28;20558;-52
2022/04/21 08:21:58;;;;;;;9.60;8.70;;;;;;;;;;4981513;28;20483;-53
2022/04/21 08:32:43;;;;;;;10.33;8.53;;;;;;;;;;4985303;28;20876;-53
2022/04/21 08:35:09;;;;;;;13.10;9.90;;;;;;;;;;4983878;28;20449;-54
2022/04/21 08:37:36;;;;;;;10.50;8.70;;;;;;;;;;4987536;28;20512;-53
2022/04/21 08:40:02;;;;;;;10.20;9.10;;;;;;;;;;4960044;28;20477;-54
2022/04/21 08:42:30;;;;;;;14.20;9.13;;;;;;;;;;4984380;28;20476;-54
2022/04/21 08:44:56;;;;;;;15.23;9.57;;;;;;;;;;4982608;28;20452;-52
2022/04/21 08:47:22;;;;;;;10.50;9.30;;;;;;;;;;4984777;28;20480;-52
2022/04/21 08:49:48;;;;;;;15.20;9.93;;;;;;;;;;4958268;28;20519;-53
2022/04/21 08:52:14;;;;;;;12.47;10.50;;;;;;;;;;4980322;28;20275;-53
2022/04/21 08:54:40;;;;;;;10.20;9.20;;;;;;;;;;4996849;28;20448;-54
2022/04/21 08:57:06;;;;;;;9.77;8.50;;;;;;;;;;4987478;28;20441;-52
2022/04/21 08:59:32;;;;;;;11.60;9.03;;;;;;;;;;4945941;28;20480;-52
2022/04/21 09:01:59;;;;;;;12.37;10.40;;;;;;;;;;4985227;28;20493;-53
2022/04/21 09:04:25;;;;;;;10.20;9.13;;;;;;;;;;4996598;28;20445;-54
2022/04/21 09:06:51;;;;;;;10.53;9.60;;;;;;;;;;4981749;28;20494;-52
2022/04/21 09:09:20;;;;;;;12.20;10.47;;;;;;;;;;4968222;28;20226;-53
2022/04/21 09:11:46;;;;;;;11.17;10.07;;;;;;;;;;4979252;28;20673;-52
2022/04/21 09:14:15;;;;;;;12.43;9.30;;;;;;;;;;4955882;28;20596;-52
2022/04/21 09:16:41;;;;;;;10.50;9.40;;;;;;;;;;4980416;28;20249;-52
2022/04/21 09:19:07;;;;;;;19.07;9.47;;;;;;;;;;4968513;28;21251;-52
2022/04/21 09:21:39;;;;;;;13.37;8.63;;;;;;;;;;4985996;28;20501;-52
2022/04/21 09:24:24;;;;;;;12.50;9.23;;;;;;;;;;4962024;28;20709;-51
2022/04/21 09:26:50;;;;;;;10.70;8.80;;;;;;;;;;4988919;28;20460;-52
2022/04/21 09:29:30;;;;;;;10.50;9.40;;;;;;;;;;4979827;28;21189;-52
2022/04/21 09:31:57;;;;;;;9.93;8.90;;;;;;;;;;4973562;28;21753;-52
2022/04/21 09:34:23;;;;;;;11.87;9.03;;;;;;;;;;4943161;28;20437;-54
2022/04/21 09:36:49;;;;;;;12.60;8.97;;;;;;;;;;4987423;28;20475;-53
2022/04/21 09:39:15;;;;;;;9.87;8.73;;;;;;;;;;4973739;28;20479;-52
2022/04/21 09:41:43;;;;;;;11.03;9.27;;;;;;;;;;4986901;28;20444;-53
2022/04/21 09:46:56;;;;;;;11.20;8.80;;;;;;;;;;4988477;28;20444;-52
2022/04/21 09:49:35;;;;;;;13.13;8.80;;;;;;;;;;4971004;28;21002;-53
2022/04/21 09:52:01;;;;;;;8.83;7.93;;;;;;;;;;4984990;28;20437;-53
2022/04/21 09:54:28;;;;;;;10.23;9.07;;;;;;;;;;4977820;28;20513;-52
2022/04/21 09:56:54;;;;;;;10.90;9.20;;;;;;;;;;4988015;28;20852;-52
2022/04/21 09:59:21;;;;;;;14.00;9.27;;;;;;;;;;4954668;28;23511;-51
2022/04/21 10:01:47;;;;;;;11.50;8.73;;;;;;;;;;5000662;28;20445;-53
2022/04/21 10:04:13;;;;;;;9.50;8.13;;;;;;;;;;4944800;28;20460;-54
2022/04/21 10:06:39;;;;;;;10.67;8.83;;;;;;;;;;4980383;28;20445;-52
2022/04/21 10:09:06;;;;;;;9.40;8.50;;;;;;;;;;4973479;28;20523;-53
2022/04/21 10:11:32;;;;;;;13.37;9.23;;;;;;;;;;4981773;28;20448;-52
2022/04/21 10:13:58;;;;;;;12.37;8.87;;;;;;;;;;4974194;28;20441;-53
2022/04/21 10:16:24;;;;;;;9.07;7.30;;;;;;;;;;4977604;28;21246;-52
2022/04/21 10:18:50;;;;;;;8.07;7.30;;;;;;;;;;4968325;28;21248;-53
2022/04/21 10:21:36;;;;;;;7.67;6.67;;;;;;;;;;4975465;28;20468;-52
2022/04/21 10:24:02;;;;;;;7.83;7.03;;;;;;;;;;4981792;28;20451;-53
2022/04/21 10:26:43;;;;;;;7.53;6.23;;;;;;;;;;4978809;28;20481;-54
2022/04/21 10:29:21;;;;;;;8.00;7.20;;;;;;;;;;4953185;28;20527;-52
2022/04/21 10:32:07;;;;;;;6.73;6.13;;;;;;;;;;4982202;28;20911;-52
2022/04/21 10:34:40;;;;;;;7.23;6.37;;;;;;;;;;4979109;28;20438;-52
2022/04/21 10:37:15;;;;;;;7.37;6.67;;;;;;;;;;4981846;28;20448;-52
2022/04/21 10:40:00;;;;;;;9.43;7.07;;;;;;;;;;4919735;28;20559;-52
2022/04/21 10:42:26;;;;;;;7.73;6.93;;;;;;;;;;4982286;28;20584;-52
2022/04/21 10:44:52;;;;;;;8.50;7.30;;;;;;;;;;4976884;28;20437;-53
2022/04/21 10:47:37;;;;;;;7.60;6.60;;;;;;;;;;4984447;28;20455;-53
2022/04/21 10:50:03;;;;;;;7.97;6.37;;;;;;;;;;4954178;28;20594;-52
2022/04/21 10:57:49;;;;;;;6.43;5.83;;;;;;;;;;4982087;28;20578;-53
2022/04/21 11:00:28;;;;;;;6.87;5.90;;;;;;;;;;4957992;28;20491;-52
2022/04/21 11:03:05;;;;;;;6.80;6.10;;;;;;;;;;4976419;28;20451;-52
2022/04/21 11:05:33;;;;;;;6.60;5.73;;;;;;;;;;4973033;28;20472;-52
2022/04/21 11:07:59;;;;;;;6.70;5.93;;;;;;;;;;4972361;28;20833;-53
2022/04/21 11:10:29;;;;;;;9.17;5.73;;;;;;;;;;4938338;28;20840;-53
2022/04/21 11:12:55;;;;;;;7.07;5.87;;;;;;;;;;4984535;28;20985;-52
2022/04/21 11:15:41;;;;;;;7.70;6.90;;;;;;;;;;4972798;28;20441;-54
2022/04/21 11:18:10;;;;;;;7.53;6.53;;;;;;;;;;4980111;28;20508;-53
2022/04/21 11:20:39;;;;;;;5.33;4.83;;;;;;;;;;4957496;28;20447;-53
2022/04/21 11:23:10;;;;;;;4.30;3.90;;;;;;;;;;4979409;28;20452;-51
2022/04/21 11:25:36;;;;;;;5.43;4.53;;;;;;;;;;4980115;28;20857;-53
2022/04/21 11:28:02;;;;;;;6.17;5.57;;;;;;;;;;4987285;28;20653;-53
2022/04/21 11:30:28;;;;;;;7.43;5.57;;;;;;;;;;4956285;28;20543;-53
2022/04/21 11:32:54;;;;;;;4.90;4.50;;;;;;;;;;4987118;28;20495;-53
2022/04/21 11:35:24;;;;;;;5.10;4.60;;;;;;;;;;4981390;28;20444;-54
2022/04/21 11:37:59;;;;;;;5.07;4.67;;;;;;;;;;4982289;28;20762;-53
2022/04/21 11:40:25;;;;;;;5.20;4.60;;;;;;;;;;4944848;28;20697;-54
2022/04/21 11:42:51;;;;;;;6.60;4.70;;;;;;;;;;4990088;28;20441;-53
2022/04/21 11:45:24;;;;;;;4.30;3.90;;;;;;;;;;4986625;28;20536;-52
2022/04/21 11:47:50;;;;;;;6.50;3.80;;;;;;;;;;4989259;28;20445;-53
2022/04/21 11:50:23;;;;;;;4.47;3.83;;;;;;;;;;4967145;28;20429;-55
2022/04/21 11:52:52;;;;;;;4.20;3.80;;;;;;;;;;4988378;28;20497;-53
2022/04/21 11:55:19;;;;;;;6.83;4.90;;;;;;;;;;4952976;28;20559;-58
2022/04/21 11:57:45;;;;;;;4.50;4.10;;;;;;;;;;4983876;28;21092;-53
2022/04/21 12:00:11;;;;;;;4.20;3.80;;;;;;;;;;4980790;28;20550;-53
2022/04/21 12:08:07;;;;;;;5.17;3.90;;;;;;;;;;4985622;28;21077;-52
2022/04/21 12:10:32;;;;;;;4.43;3.63;;;;;;;;;;4945142;28;20441;-54
2022/04/21 12:12:58;;;;;;;4.00;3.53;;;;;;;;;;4978529;28;20519;-52
2022/04/21 12:15:28;;;;;;;3.07;2.77;;;;;;;;;;4983873;28;20506;-53
2022/04/21 12:18:03;;;;;;;3.10;2.80;;;;;;;;;;4988570;28;20332;-53
2022/04/21 12:20:29;;;;;;;3.80;2.90;;;;;;;;;;4981955;28;20846;-53
2022/04/21 12:22:56;;;;;;;2.37;1.80;;;;;;;;;;4983701;28;20437;-54
2022/04/21 12:25:31;;;;;;;3.70;3.00;;;;;;;;;;4980355;28;20437;-53
2022/04/21 12:28:03;;;;;;;2.70;2.40;;;;;;;;;;4987501;28;20492;-53
2022/04/21 12:30:29;;;;;;;3.30;2.30;;;;;;;;;;4954329;28;20515;-53
2022/04/21 12:32:55;;;;;;;3.37;2.50;;;;;;;;;;4984746;28;20448;-54
2022/04/21 12:35:40;;;;;;;3.30;2.50;;;;;;;;;;4982440;28;20460;-53
2022/04/21 12:40:52;;;;;;;4.20;2.70;;;;;;;;;;4960074;28;20497;-53
2022/04/21 12:43:18;;;;;;;3.27;2.80;;;;;;;;;;4981321;28;20445;-53
2022/04/21 12:45:44;;;;;;;4.83;2.23;;;;;;;;;;4947338;28;20820;-53
2022/04/21 12:48:20;;;;;;;2.30;2.10;;;;;;;;;;4999163;28;20441;-53
2022/04/21 12:50:46;;;;;;;4.43;2.50;;;;;;;;;;4985056;28;20441;-54
2022/04/21 12:53:12;;;;;;;3.83;1.77;;;;;;;;;;4987395;28;20993;-53
2022/04/21 12:55:38;;;;;;;3.17;2.00;;;;;;;;;;4996268;28;20461;-53
2022/04/21 12:58:10;;;;;;;3.00;2.20;;;;;;;;;;4975816;28;20224;-53
2022/04/21 13:00:42;;;;;;;2.30;2.10;;;;;;;;;;4952153;28;20236;-54
2022/04/21 13:03:11;;;;;;;2.70;2.50;;;;;;;;;;4968421;28;20451;-54
2022/04/21 13:05:53;;;;;;;4.23;2.93;;;;;;;;;;4974070;28;20444;-53
2022/04/21 13:08:19;;;;;;;3.23;2.50;;;;;;;;;;4983661;28;20439;-53
2022/04/21 13:10:45;;;;;;;4.40;3.00;;;;;;;;;;4956695;28;20527;-53
2022/04/21 13:13:11;;;;;;;3.50;2.33;;;;;;;;;;4974973;28;20535;-52
2022/04/21 13:15:37;;;;;;;3.53;3.23;;;;;;;;;;4957172;28;20499;-54
2022/04/21 13:18:03;;;;;;;2.80;2.50;;;;;;;;;;4980142;28;20260;-53
2022/04/21 13:23:14;;;;;;;3.60;2.50;;;;;;;;;;4977084;28;20443;-54
2022/04/21 13:25:40;;;;;;;5.70;2.13;;;;;;;;;;4962063;28;20548;-53
2022/04/21 13:28:06;;;;;;;3.10;2.10;;;;;;;;;;4988351;28;20836;-54
2022/04/21 13:30:32;;;;;;;2.93;2.60;;;;;;;;;;4958546;28;20460;-54
2022/04/21 13:35:44;;;;;;;4.60;3.00;;;;;;;;;;4955364;28;20536;-53
2022/04/21 13:38:10;;;;;;;3.40;2.27;;;;;;;;;;4981566;28;20484;-53
2022/04/21 13:40:36;;;;;;;3.67;3.23;;;;;;;;;;4984621;28;20444;-54
2022/04/21 13:43:02;;;;;;;3.90;3.10;;;;;;;;;;4987084;28;20257;-55
2022/04/21 13:45:28;;;;;;;3.87;2.83;;;;;;;;;;4956820;28;20193;-54
2022/04/21 13:47:56;;;;;;;4.00;3.00;;;;;;;;;;4981553;28;20259;-53
2022/04/21 13:50:22;;;;;;;3.77;3.07;;;;;;;;;;4973180;28;20563;-53
2022/04/21 13:52:48;;;;;;;3.27;2.70;;;;;;;;;;4982224;28;20437;-53
2022/04/21 13:55:14;;;;;;;2.60;2.33;;;;;;;;;;4943255;28;21265;-53
2022/04/21 13:57:40;;;;;;;2.37;2.17;;;;;;;;;;4980192;28;20441;-52
2022/04/21 14:00:07;;;;;;;3.30;3.00;;;;;;;;;;4971554;28;20437;-53
2022/04/21 14:02:33;;;;;;;2.80;2.53;;;;;;;;;;4982423;28;21021;-52
2022/04/21 14:04:59;;;;;;;3.17;2.87;;;;;;;;;;4955728;28;20942;-53
2022/04/21 14:07:25;;;;;;;3.50;3.20;;;;;;;;;;4984794;28;20559;-54
2022/04/21 14:09:51;;;;;;;5.30;3.00;;;;;;;;;;4979114;28;20440;-52
2022/04/21 14:12:18;;;;;;;4.50;3.30;;;;;;;;;;4980475;28;20449;-52
2022/04/21 14:14:44;;;;;;;2.70;2.50;;;;;;;;;;4955479;28;20535;-53
2022/04/21 14:17:10;;;;;;;4.27;2.77;;;;;;;;;;4978597;28;20449;-53
2022/04/21 14:19:37;;;;;;;4.33;2.70;;;;;;;;;;4979802;28;20479;-53
2022/04/21 14:22:03;;;;;;;3.90;3.00;;;;;;;;;;4974636;28;20444;-52
2022/04/21 14:24:29;;;;;;;3.73;3.17;;;;;;;;;;4939821;28;21267;-53
2022/04/21 14:26:57;;;;;;;8.70;3.30;;;;;;;;;;4977709;28;20437;-53
2022/04/21 14:29:23;;;;;;;3.03;2.57;;;;;;;;;;4952601;28;20953;-53
2022/04/21 14:31:49;;;;;;;4.70;2.93;;;;;;;;;;4983806;28;20429;-54
2022/04/21 14:34:15;;;;;;;3.60;2.53;;;;;;;;;;4975879;28;20448;-54
2022/04/21 14:36:41;;;;;;;2.93;2.27;;;;;;;;;;4979610;28;20268;-53
2022/04/21 14:44:36;;;;;;;3.43;2.60;;;;;;;;;;4965954;28;20471;-52
2022/04/21 14:47:03;;;;;;;3.40;2.17;;;;;;;;;;4945174;28;20879;-53
2022/04/21 14:49:30;;;;;;;4.23;2.20;;;;;;;;;;4978218;28;20450;-53
2022/04/21 14:51:56;;;;;;;2.60;2.20;;;;;;;;;;4978814;28;20471;-53
2022/04/21 14:54:22;;;;;;;5.90;5.00;;;;;;;;;;4972387;28;21323;-54
2022/04/21 14:56:48;;;;;;;23.00;7.40;;;;;;;;;;4935467;28;20986;-54
2022/04/21 14:59:14;;;;;;;5.80;2.47;;;;;;;;;;4978562;28;20577;-52
2022/04/21 15:01:41;;;;;;;6.67;3.63;;;;;;;;;;4955622;28;20301;-53
2022/04/21 15:04:07;;;;;;;8.30;3.90;;;;;;;;;;4981526;28;20446;-53
2022/04/21 15:06:33;;;;;;;3.60;2.47;;;;;;;;;;4981612;28;20469;-53
2022/04/21 15:08:59;;;;;;;2.90;2.10;;;;;;;;;;4987614;28;20443;-53
2022/04/21 15:11:25;;;;;;;3.47;1.93;;;;;;;;;;4959773;28;20444;-54
2022/04/21 15:13:51;;;;;;;2.40;2.10;;;;;;;;;;4977450;28;20447;-55
2022/04/21 15:16:17;;;;;;;2.80;2.40;;;;;;;;;;4979145;28;21479;-54
2022/04/21 15:18:43;;;;;;;3.57;2.50;;;;;;;;;;4979384;28;20838;-55
2022/04/21 15:21:09;;;;;;;3.20;2.10;;;;;;;;;;4954008;28;21330;-55
2022/04/21 15:23:35;;;;;;;3.40;2.07;;;;;;;;;;4979403;28;20539;-54
2022/04/21 15:26:01;;;;;;;3.93;2.50;;;;;;;;;;4936830;28;20987;-55
2022/04/21 15:28:28;;;;;;;2.63;2.00;;;;;;;;;;4973924;28;20806;-56
2022/04/21 15:30:54;;;;;;;2.70;2.07;;;;;;;;;;4960040;28;21159;-53
2022/04/21 15:33:20;;;;;;;3.77;2.13;;;;;;;;;;4979981;28;20459;-52
2022/04/21 15:35:46;;;;;;;3.50;2.10;;;;;;;;;;4980682;28;20500;-52
2022/04/21 15:38:13;;;;;;;3.53;2.10;;;;;;;;;;4972307;28;20476;-53
2022/04/21 15:40:39;;;;;;;2.20;1.67;;;;;;;;;;4981992;28;20539;-53
2022/04/21 15:43:08;;;;;;;2.50;2.00;;;;;;;;;;4949572;28;20456;-53
2022/04/21 15:45:34;;;;;;;2.50;2.27;;;;;;;;;;4989226;28;20482;-54
2022/04/21 15:48:00;;;;;;;4.60;2.10;;;;;;;;;;4983829;28;20600;-54